Time;durP1;ratioP1;P1;durP2;ratioP2;P2;SDS_P1;SDS_P2;PMS_P1;PMS_P2;Temp;Humidity;BMP_temperature;BMP_pressure;BME280_temperature;BME280_humidity;BME280_pressure;Samples;Min_cycle;Max_cycle;Signal;HPM_P1;HPM_P2
2022/01/23 00:00:19;;;;;;;37.35;20.67;;;;;;;4.43;62.50;101370.97;5059938;28;20056;-78
2022/01/23 00:02:51;;;;;;;36.03;22.50;;;;;;;4.40;63.18;101377.06;5057854;28;20372;-78
2022/01/23 00:05:19;;;;;;;45.95;25.10;;;;;;;4.33;63.07;101362.81;5056917;28;20036;-78
2022/01/23 00:07:50;;;;;;;53.90;28.17;;;;;;;4.33;62.99;101371.91;5058977;28;20116;-79
2022/01/23 00:10:16;;;;;;;48.95;27.70;;;;;;;4.35;62.81;101363.34;5056547;28;20025;-79
2022/01/23 00:12:49;;;;;;;42.58;25.75;;;;;;;4.39;62.63;101369.91;5057251;28;20128;-78
2022/01/23 00:17:59;;;;;;;44.30;22.70;;;;;;;4.35;62.25;101360.56;5058178;28;20110;-78
2022/01/23 00:20:30;;;;;;;33.63;20.92;;;;;;;4.40;61.61;101361.34;5056840;28;20464;-79
2022/01/23 00:23:10;;;;;;;25.80;16.70;;;;;;;4.39;61.57;101369.91;5056258;28;20511;-78
2022/01/23 00:30:20;;;;;;;23.92;14.77;;;;;;;4.30;62.39;101371.66;5057220;28;20384;-78
2022/01/23 00:31:25;;;;;;;20.75;13.75;;;;;;;4.26;62.38;101376.94;5056924;28;20060;-78
2022/01/23 00:33:54;;;;;;;20.95;11.88;;;;;;;4.35;61.78;101374.34;5056172;28;20018;-78
2022/01/23 00:36:24;;;;;;;18.38;11.55;;;;;;;4.37;61.97;101374.91;5056002;28;20021;-78
2022/01/23 00:38:53;;;;;;;20.63;12.85;;;;;;;4.48;61.72;101384.69;5057156;28;20025;-78
2022/01/23 00:41:21;;;;;;;16.02;9.95;;;;;;;4.41;61.08;101385.03;5056925;28;20029;-78
2022/01/23 00:43:49;;;;;;;27.40;9.85;;;;;;;4.48;61.16;101404.00;5057495;28;20033;-80
2022/01/23 00:46:32;;;;;;;13.88;8.15;;;;;;;4.65;60.53;101406.28;5058072;28;20111;-78
2022/01/23 00:51:38;;;;;;;15.45;8.90;;;;;;;4.72;60.07;101407.56;5058704;28;20033;-78
2022/01/23 00:54:09;;;;;;;20.15;8.95;;;;;;;4.66;60.41;101403.22;5057526;28;20094;-78
2022/01/23 00:56:35;;;;;;;15.18;8.73;;;;;;;4.80;61.48;101403.34;5057265;28;20122;-78
2022/01/23 00:59:02;;;;;;;18.27;8.20;;;;;;;4.72;60.92;101399.28;5057276;28;20049;-78
2022/01/23 01:01:28;;;;;;;14.73;9.25;;;;;;;4.63;61.39;101403.78;5057075;28;20037;-78
2022/01/23 01:03:56;;;;;;;16.30;8.40;;;;;;;4.57;62.09;101398.63;5057837;28;20060;-78
2022/01/23 01:06:23;;;;;;;13.82;8.60;;;;;;;4.63;62.01;101403.78;5057569;28;20055;-79
2022/01/23 01:08:54;;;;;;;17.40;8.88;;;;;;;4.65;61.94;101407.09;5056896;28;20025;-78
2022/01/23 01:14:08;;;;;;;14.15;7.70;;;;;;;4.51;62.67;101395.13;5057498;28;20039;-78
2022/01/23 01:16:56;;;;;;;12.60;7.47;;;;;;;4.48;63.09;101406.75;5056014;28;20489;-78
2022/01/23 01:30:54;;;;;;;11.63;7.07;;;;;;;4.31;64.66;101409.91;5058434;28;20043;-78
2022/01/23 01:36:06;;;;;;;15.50;8.25;;;;;;;4.20;65.13;101408.38;5058346;28;20037;-78
2022/01/23 01:38:34;;;;;;;17.23;9.65;;;;;;;4.13;65.42;101397.72;5056948;28;20464;-78
2022/01/23 01:41:03;;;;;;;20.73;9.63;;;;;;;4.23;65.37;101398.72;5056949;28;20114;-78
2022/01/23 01:43:28;;;;;;;15.02;8.40;;;;;;;4.18;65.14;101403.16;5056580;28;20037;-78
2022/01/23 01:45:57;;;;;;;21.90;10.25;;;;;;;4.11;64.98;101410.97;5057050;28;20041;-78
2022/01/23 01:48:25;;;;;;;17.27;9.65;;;;;;;4.07;63.67;101409.88;5056945;28;20079;-79
2022/01/23 01:50:55;;;;;;;14.27;10.10;;;;;;;4.01;63.19;101408.28;5057632;28;20379;-79
2022/01/23 01:53:25;;;;;;;19.38;10.20;;;;;;;3.98;64.35;101383.25;5058115;28;20028;-78
2022/01/23 01:55:56;;;;;;;24.98;11.75;;;;;;;4.06;64.83;101405.50;5058041;28;20357;-78
2022/01/23 01:59:08;;;;;;;19.80;10.82;;;;;;;4.02;65.21;101409.94;5056855;28;20060;-79
2022/01/23 02:55:28;;;;;;;11.30;5.68;;;;;;;4.42;63.78;101407.88;5054911;28;20032;-78
2022/01/23 02:58:00;;;;;;;11.50;5.93;;;;;;;4.32;64.14;101410.78;5053920;28;20525;-81
2022/01/23 03:00:34;;;;;;;9.90;5.32;;;;;;;4.38;63.80;101404.91;5054788;28;20072;-78
2022/01/23 03:03:06;;;;;;;9.75;5.50;;;;;;;4.42;63.88;101419.75;5054300;28;20375;-78
2022/01/23 03:05:39;;;;;;;7.93;4.85;;;;;;;4.43;64.07;101415.06;5053577;28;20122;-78
2022/01/23 03:10:57;;;;;;;9.18;5.07;;;;;;;4.34;64.32;101422.31;5055218;28;20048;-79
2022/01/23 03:24:04;;;;;;;37.25;15.65;;;;;;;4.29;64.21;101414.91;5054877;28;20044;-78
2022/01/23 03:27:48;;;;;;;23.08;13.10;;;;;;;4.25;64.61;101424.03;5060113;28;20040;-79
2022/01/23 03:30:18;;;;;;;45.72;24.65;;;;;;;4.22;64.86;101408.13;5059496;28;20033;-79
2022/01/23 03:32:47;;;;;;;30.83;18.03;;;;;;;4.17;65.09;101412.56;5059155;28;20033;-78
2022/01/23 03:35:15;;;;;;;23.05;12.20;;;;;;;4.18;64.74;101408.69;5058069;28;20048;-79
2022/01/23 03:37:40;;;;;;;12.38;8.32;;;;;;;4.27;64.82;101410.81;5059639;28;20468;-79
2022/01/23 03:40:07;;;;;;;6.78;5.10;;;;;;;4.30;64.21;101421.25;5058752;28;20029;-78
2022/01/23 03:42:43;;;;;;;9.27;4.35;;;;;;;4.58;63.12;101428.69;5058115;28;20044;-79
2022/01/23 03:45:36;;;;;;;6.45;4.22;;;;;;;4.64;62.73;101422.00;5057173;28;20025;-79
2022/01/23 03:50:48;;;;;;;9.35;4.20;;;;;;;4.58;62.82;101412.16;5038849;28;20048;-78
2022/01/23 03:53:17;;;;;;;8.25;4.70;;;;;;;4.49;63.17;101402.88;5057797;28;20037;-78
2022/01/23 03:55:46;;;;;;;5.15;3.67;;;;;;;4.54;63.17;101408.31;5057508;28;20060;-78
2022/01/23 03:58:14;;;;;;;5.93;3.50;;;;;;;4.61;62.42;101414.31;5057510;28;20048;-78
2022/01/23 04:00:43;;;;;;;6.38;3.88;;;;;;;4.57;62.03;101409.66;5057413;28;20119;-78
2022/01/23 04:03:12;;;;;;;7.07;3.75;;;;;;;4.59;61.96;101394.47;5056898;28;20044;-78
2022/01/23 04:05:43;;;;;;;8.73;4.10;;;;;;;4.49;62.04;101413.06;5057830;28;20037;-77
2022/01/23 04:08:15;;;;;;;8.60;4.53;;;;;;;4.54;62.39;101421.28;5058080;28;20376;-78
2022/01/23 04:10:43;;;;;;;10.15;4.13;;;;;;;4.52;62.57;101410.53;5058388;28;20025;-78
2022/01/23 04:19:05;;;;;;;11.40;6.82;;;;;;;4.51;61.46;101395.13;5060070;28;20098;-78
2022/01/23 04:32:19;;;;;;;3.35;2.70;;;;;;;4.62;60.49;101396.63;5059820;28;20043;-78
2022/01/23 04:35:09;;;;;;;4.10;2.50;;;;;;;4.50;60.69;101393.47;5059132;28;20029;-78
2022/01/23 04:46:01;;;;;;;4.07;2.97;;;;;;;4.67;59.57;101401.28;5062279;28;20467;-78
2022/01/23 04:59:47;;;;;;;2.38;2.17;;;;;;;4.66;60.36;101417.00;5059386;28;20446;-80
2022/01/23 05:05:03;;;;;;;2.60;1.88;;;;;;;4.61;60.22;101411.53;5057802;28;20121;-78
2022/01/23 05:07:32;;;;;;;2.78;2.00;;;;;;;4.54;60.33;101422.09;5058830;28;21928;-78
2022/01/23 05:09:58;;;;;;;5.20;2.13;;;;;;;4.52;60.65;101434.53;5058332;28;20036;-79
2022/01/23 05:12:31;;;;;;;3.28;2.53;;;;;;;4.49;61.03;101424.91;5060181;28;20037;-78
2022/01/23 05:15:03;;;;;;;4.53;2.40;;;;;;;4.54;60.52;101427.63;5058429;28;20456;-80
2022/01/23 05:17:34;;;;;;;4.20;2.28;;;;;;;4.56;60.85;101424.56;5054980;28;20033;-78
2022/01/23 05:20:00;;;;;;;5.18;2.58;;;;;;;4.58;60.87;101430.59;5054615;28;20518;-78
2022/01/23 05:22:41;;;;;;;4.25;2.22;;;;;;;4.63;61.25;101434.13;5054750;28;20064;-78
2022/01/23 05:27:38;;;;;;;4.05;2.08;;;;;;;4.65;61.05;101423.63;5056037;28;20043;-78
2022/01/23 05:30:07;;;;;;;2.95;2.22;;;;;;;4.70;60.87;101434.59;5054916;28;20108;-78
2022/01/23 05:32:41;;;;;;;5.53;2.25;;;;;;;4.76;60.41;101438.13;5054323;28;20029;-78
2022/01/23 05:35:09;;;;;;;3.40;2.35;;;;;;;4.79;60.49;101442.22;5054659;28;20491;-78
2022/01/23 05:37:39;;;;;;;3.10;1.58;;;;;;;4.73;60.42;101442.28;5054246;28;20032;-77
2022/01/23 05:40:06;;;;;;;5.80;2.40;;;;;;;4.76;60.19;101434.53;5054826;28;20025;-78
2022/01/23 05:42:35;;;;;;;5.43;2.20;;;;;;;4.79;60.52;101448.53;5051771;28;20056;-78
2022/01/23 05:45:04;;;;;;;4.40;1.92;;;;;;;4.87;60.74;101445.16;5054397;28;20040;-78
2022/01/23 05:47:32;;;;;;;7.85;2.40;;;;;;;4.75;60.98;101443.94;5054373;28;20052;-77
2022/01/23 05:49:58;;;;;;;3.40;2.20;;;;;;;4.78;60.36;101449.66;5053989;28;20029;-78
2022/01/23 05:52:31;;;;;;;2.88;1.75;;;;;;;4.84;59.63;101450.44;5053960;28;20040;-78
2022/01/23 05:55:00;;;;;;;3.13;2.50;;;;;;;4.75;60.25;101460.47;5054978;28;20029;-78
2022/01/23 05:57:28;;;;;;;6.90;1.90;;;;;;;4.73;60.25;101471.78;5056085;28;20525;-80
2022/01/23 05:59:54;;;;;;;3.60;2.55;;;;;;;4.59;60.96;101471.66;5055990;28;20518;-78
2022/01/23 06:02:20;;;;;;;3.03;1.77;;;;;;;4.61;60.76;101466.69;5054744;28;20057;-78
2022/01/23 06:04:49;;;;;;;2.35;1.70;;;;;;;4.68;60.94;101469.91;5054994;28;20363;-78
2022/01/23 06:07:14;;;;;;;6.32;1.90;;;;;;;4.66;60.34;101472.13;5055140;28;20091;-79
2022/01/23 06:09:46;;;;;;;2.35;1.75;;;;;;;4.72;60.14;101470.16;5054381;28;20033;-79
2022/01/23 06:12:15;;;;;;;4.32;1.70;;;;;;;4.47;60.08;101432.63;5054886;28;20032;-78
2022/01/23 06:14:40;;;;;;;3.58;1.83;;;;;;;4.64;60.10;101471.63;5054725;28;20033;-79
2022/01/23 06:17:06;;;;;;;3.38;1.98;;;;;;;4.66;60.64;101474.91;5055578;28;20033;-78
2022/01/23 06:19:36;;;;;;;5.07;2.22;;;;;;;4.69;60.42;101479.84;5054403;28;20029;-78
2022/01/23 06:22:02;;;;;;;2.42;1.98;;;;;;;4.63;60.46;101483.72;5054439;28;20119;-78
2022/01/23 06:24:30;;;;;;;3.25;2.15;;;;;;;4.55;60.22;101473.34;5054523;28;20044;-78
2022/01/23 06:27:03;;;;;;;3.83;2.72;;;;;;;4.66;60.11;101485.91;5055007;28;20036;-78
2022/01/23 06:29:30;;;;;;;4.13;2.40;;;;;;;4.71;59.29;101485.88;5054675;28;20190;-78
2022/01/23 06:32:02;;;;;;;3.53;2.40;;;;;;;5.19;57.34;101483.13;5055011;28;20044;-78
2022/01/23 06:34:31;;;;;;;8.95;3.40;;;;;;;5.81;55.90;101485.06;5054817;28;20025;-78
2022/01/23 06:37:00;;;;;;;5.18;3.08;;;;;;;6.31;54.07;101480.66;5055492;28;20044;-78
2022/01/23 06:39:27;;;;;;;8.15;2.70;;;;;;;6.68;53.39;101490.78;5056376;28;20037;-79
2022/01/23 06:41:56;;;;;;;6.03;2.78;;;;;;;7.11;51.83;101487.75;5055910;28;20058;-79
2022/01/23 06:44:26;;;;;;;3.17;2.17;;;;;;;7.57;50.94;101487.59;5055726;28;20021;-80
2022/01/23 06:46:54;;;;;;;5.50;2.92;;;;;;;8.04;49.26;101492.88;5057281;28;20029;-78
2022/01/23 06:49:26;;;;;;;8.85;3.25;;;;;;;8.54;47.66;101503.91;5057399;28;20025;-79
2022/01/23 06:51:55;;;;;;;12.50;6.75;;;;;;;8.84;44.91;101489.22;5057863;28;20043;-78
2022/01/23 06:54:23;;;;;;;11.23;6.80;;;;;;;9.42;44.36;101499.19;5055459;28;20029;-78
2022/01/23 06:56:48;;;;;;;15.93;8.73;;;;;;;9.07;43.17;101511.34;5057082;28;20033;-78
2022/01/23 06:59:17;;;;;;;10.80;5.57;;;;;;;8.99;44.97;101514.88;5055542;28;20065;-78
2022/01/23 07:01:42;;;;;;;18.08;7.45;;;;;;;9.11;45.42;101507.63;5059590;28;20029;-78
2022/01/23 07:04:11;;;;;;;5.47;3.42;;;;;;;9.00;43.56;101508.19;5060206;28;20143;-79
2022/01/23 07:06:38;;;;;;;12.45;5.45;;;;;;;9.87;43.41;101507.28;5060337;28;20028;-78
2022/01/23 07:09:07;;;;;;;21.40;13.80;;;;;;;10.53;42.36;101514.63;5061800;28;20495;-78
2022/01/23 07:11:33;;;;;;;27.63;17.80;;;;;;;11.13;40.97;101516.41;5061958;28;20415;-78
2022/01/23 07:13:58;;;;;;;22.48;14.70;;;;;;;11.51;39.90;101500.50;5062272;28;20037;-78
2022/01/23 07:16:24;;;;;;;19.88;12.93;;;;;;;11.82;39.89;101504.91;5062533;28;20056;-78
2022/01/23 07:18:49;;;;;;;15.25;11.18;;;;;;;12.06;38.61;101509.81;5062585;28;20029;-78
2022/01/23 07:21:15;;;;;;;15.88;9.25;;;;;;;12.45;38.84;101511.25;5062813;28;20042;-79
2022/01/23 07:23:50;;;;;;;10.10;7.07;;;;;;;12.59;37.58;101511.78;5062893;28;20457;-79
2022/01/23 07:26:18;;;;;;;12.30;6.53;;;;;;;13.00;37.87;101510.00;5063732;28;20071;-79
2022/01/23 07:28:47;;;;;;;9.88;7.28;;;;;;;12.90;36.11;101510.47;5063039;28;20025;-78
2022/01/23 07:34:04;;;;;;;9.68;5.88;;;;;;;12.80;36.30;101511.72;5064713;28;20041;-78
2022/01/23 07:36:34;;;;;;;8.88;3.15;;;;;;;12.94;34.86;101522.56;5063689;28;20025;-80
2022/01/23 07:39:00;;;;;;;4.63;2.90;;;;;;;12.80;35.88;101516.50;5063285;28;20068;-77
2022/01/23 07:41:31;;;;;;;13.52;3.80;;;;;;;13.22;35.56;101516.34;5063818;28;20087;-78
2022/01/23 07:44:02;;;;;;;8.98;5.50;;;;;;;12.91;35.25;101528.84;5063638;28;20484;-78
2022/01/23 07:46:37;;;;;;;23.08;6.90;;;;;;;13.18;36.34;101537.75;5064162;28;20032;-78
2022/01/23 07:49:09;;;;;;;7.28;3.38;;;;;;;12.91;34.58;101534.44;5063548;28;20130;-78
2022/01/23 07:51:35;;;;;;;18.05;10.07;;;;;;;13.14;35.26;101536.78;5062666;28;20037;-78
2022/01/23 07:54:06;;;;;;;11.10;6.90;;;;;;;13.52;34.83;101537.31;5062739;28;20101;-78
2022/01/23 07:56:32;;;;;;;11.05;4.25;;;;;;;13.47;33.32;101520.75;5059094;28;20112;-79
2022/01/23 07:59:00;;;;;;;7.50;4.30;;;;;;;13.84;32.65;101537.50;5057187;28;20088;-78
2022/01/23 08:01:30;;;;;;;5.38;2.97;;;;;;;13.56;32.84;101523.44;5056525;28;20067;-78
2022/01/23 08:03:58;;;;;;;8.95;5.90;;;;;;;13.52;31.88;101526.13;5058092;28;20033;-78
2022/01/23 08:06:32;;;;;;;4.07;3.50;;;;;;;13.51;31.46;101518.91;5056949;28;20044;-78
2022/01/23 08:08:58;;;;;;;6.43;2.95;;;;;;;13.63;32.44;101526.47;5057400;28;20064;-78
2022/01/23 08:11:26;;;;;;;6.80;4.95;;;;;;;13.96;31.77;101531.91;5055983;28;20053;-78
2022/01/23 08:13:54;;;;;;;4.55;3.00;;;;;;;13.73;32.02;101525.16;5056719;28;20115;-78
2022/01/23 08:16:23;;;;;;;5.72;3.00;;;;;;;13.95;31.98;101519.06;5057481;28;20384;-78
2022/01/23 08:18:48;;;;;;;6.45;3.95;;;;;;;14.05;32.00;101532.56;5058185;28;20033;-78
2022/01/23 08:21:14;;;;;;;12.88;7.25;;;;;;;14.42;31.99;101529.63;5056488;28;20025;-78
2022/01/23 08:23:40;;;;;;;10.55;5.57;;;;;;;14.78;31.19;101539.06;5056702;28;20036;-77
2022/01/23 08:26:08;;;;;;;14.20;5.80;;;;;;;14.78;31.47;101528.69;5056409;28;20030;-77
2022/01/23 08:28:40;;;;;;;14.20;4.53;;;;;;;14.74;30.00;101532.56;5056380;28;20061;-79
2022/01/23 08:31:06;;;;;;;23.45;5.95;;;;;;;14.89;30.38;101537.38;5056229;28;20025;-78
2022/01/23 08:33:39;;;;;;;18.35;3.47;;;;;;;14.86;30.81;101538.09;5056494;28;20086;-78
2022/01/23 08:36:06;;;;;;;33.45;5.13;;;;;;;14.77;30.41;101540.25;5056630;28;20032;-78
2022/01/23 08:38:35;;;;;;;9.55;4.28;;;;;;;14.97;29.66;101550.41;5056585;28;20029;-78
2022/01/23 08:43:48;;;;;;;;;;;;;;;15.18;29.18;101561.38;5057841;28;20479;-78
2022/01/23 08:46:19;;;;;;;4.55;2.90;;;;;;;15.07;29.64;101558.28;5056062;28;19908;-78
2022/01/23 08:48:50;;;;;;;3.92;2.95;;;;;;;15.12;29.15;101552.41;5055974;28;20025;-78
2022/01/23 08:51:24;;;;;;;17.33;9.38;;;;;;;14.69;29.45;101561.66;5056267;28;20040;-77
2022/01/23 08:53:50;;;;;;;10.82;5.65;;;;;;;15.34;29.50;101552.94;5056604;28;20029;-78
2022/01/23 08:56:18;;;;;;;6.93;4.18;;;;;;;15.07;28.90;101557.47;5055515;28;20063;-77
2022/01/23 08:58:46;;;;;;;6.53;4.05;;;;;;;15.40;28.18;101557.13;5056372;28;20140;-78
2022/01/23 09:01:15;;;;;;;7.50;3.78;;;;;;;15.23;27.88;101563.88;5056308;28;20037;-79
2022/01/23 09:03:44;;;;;;;9.73;4.78;;;;;;;15.26;28.52;101574.41;5057713;28;20450;-77
2022/01/23 09:06:13;;;;;;;8.73;5.22;;;;;;;15.71;27.97;101568.34;5057154;28;20029;-77
2022/01/23 09:08:41;;;;;;;36.85;24.55;;;;;;;15.14;27.75;101575.28;5056842;28;20031;-77
2022/01/23 09:11:23;;;;;;;47.53;33.95;;;;;;;13.56;29.55;101521.47;5058767;28;20067;-77
2022/01/23 09:16:19;;;;;;;7.60;4.30;;;;;;;13.60;30.85;101583.09;5059460;28;20094;-78
2022/01/23 09:18:44;;;;;;;5.70;3.83;;;;;;;14.32;29.69;101575.75;5059162;28;20078;-77
2022/01/23 09:21:12;;;;;;;4.93;3.33;;;;;;;14.32;30.78;101569.34;5057740;28;20111;-77
2022/01/23 09:23:38;;;;;;;14.63;4.72;;;;;;;14.55;30.03;101570.47;5056700;28;20498;-79
2022/01/23 09:26:09;;;;;;;7.95;3.35;;;;;;;14.29;30.30;101567.28;5056353;28;20024;-78
2022/01/23 09:28:40;;;;;;;14.20;4.88;;;;;;;14.78;30.16;101575.50;5057575;28;20025;-78
2022/01/23 09:31:12;;;;;;;12.10;8.45;;;;;;;14.19;30.05;101562.16;5056335;28;20470;-78
2022/01/23 09:33:40;;;;;;;13.30;8.10;;;;;;;14.68;30.69;101572.03;5056760;28;20119;-78
2022/01/23 09:36:12;;;;;;;9.63;6.68;;;;;;;13.91;31.01;101582.50;5056067;28;20025;-78
2022/01/23 09:38:37;;;;;;;10.23;9.25;;;;;;;13.60;31.57;101575.53;5056358;28;20025;-78
2022/01/23 09:41:05;;;;;;;10.75;5.88;;;;;;;14.39;30.25;101580.78;5054905;28;20391;-78
2022/01/23 09:43:39;;;;;;;15.90;11.32;;;;;;;14.02;31.05;101578.06;5055512;28;20033;-78
2022/01/23 09:46:07;;;;;;;10.00;7.15;;;;;;;13.72;31.86;101576.69;5057111;28;20017;-78
2022/01/23 09:48:35;;;;;;;7.38;4.43;;;;;;;13.63;30.73;101586.03;5057061;28;20029;-78
2022/01/23 09:51:01;;;;;;;14.80;9.60;;;;;;;14.14;30.96;101594.81;5058915;28;20072;-77
2022/01/23 09:53:28;;;;;;;18.17;7.43;;;;;;;14.65;31.03;101600.78;5056815;28;20029;-78
2022/01/23 09:55:59;;;;;;;12.07;7.40;;;;;;;14.97;29.38;101598.06;5056906;28;20442;-78
2022/01/23 09:58:25;;;;;;;6.72;4.10;;;;;;;15.51;27.88;101591.88;5055593;28;20041;-78
2022/01/23 10:00:51;;;;;;;8.68;5.50;;;;;;;15.00;27.28;101588.91;5055212;28;20056;-77
2022/01/23 10:03:21;;;;;;;12.98;9.15;;;;;;;15.11;26.68;101601.22;5056957;28;20173;-79
2022/01/23 10:05:54;;;;;;;3.70;2.67;;;;;;;15.64;26.02;101590.59;5055251;28;20064;-78
2022/01/23 10:08:23;;;;;;;;;;;;;;;16.04;25.75;101592.38;5056996;28;20033;-78
2022/01/23 10:10:52;;;;;;;3.60;2.47;;;;;;;15.90;25.95;101575.19;5056030;28;19913;-78
2022/01/23 10:13:22;;;;;;;6.50;2.47;;;;;;;16.38;25.13;101575.84;5054931;28;20158;-78
2022/01/23 10:15:51;;;;;;;4.25;3.33;;;;;;;16.24;25.59;101571.56;5053907;28;20033;-78
2022/01/23 10:18:17;;;;;;;7.47;3.30;;;;;;;16.45;25.15;101573.19;5055134;28;20478;-77
2022/01/23 10:20:45;;;;;;;13.50;6.50;;;;;;;16.14;26.32;101569.34;5052820;28;20036;-72
2022/01/23 10:23:12;;;;;;;11.15;6.15;;;;;;;16.24;25.88;101557.53;5053374;28;20182;-73
2022/01/23 10:25:41;;;;;;;12.13;4.47;;;;;;;16.06;26.43;101561.13;5052146;28;20041;-71
2022/01/23 10:28:18;;;;;;;4.57;3.50;;;;;;;16.46;24.96;101558.78;5051722;28;20029;-72
2022/01/23 10:30:50;;;;;;;4.28;3.13;;;;;;;16.24;24.67;101560.34;5052698;28;20538;-72
2022/01/23 10:33:37;;;;;;;3.45;2.65;;;;;;;16.61;24.73;101556.25;5052558;28;20489;-72
2022/01/23 10:36:10;;;;;;;9.95;5.05;;;;;;;15.68;24.62;101555.03;5056858;28;20178;-72
2022/01/23 10:38:45;;;;;;;6.43;3.97;;;;;;;15.53;24.54;101567.06;5060750;28;20040;-72
2022/01/23 10:47:51;;;;;;;5.45;2.33;;;;;;;15.69;24.92;101539.03;5061592;28;20044;-72
2022/01/23 10:50:04;;;;;;;4.22;2.80;;;;;;;15.15;25.44;101540.47;5054997;28;20033;-72
2022/01/23 10:52:35;;;;;;;7.10;4.40;;;;;;;14.64;25.20;101542.28;5059300;28;20029;-71
2022/01/23 10:55:33;;;;;;;5.65;3.90;;;;;;;14.30;25.77;101540.91;5058957;28;20443;-72
2022/01/23 10:58:02;;;;;;;9.32;5.47;;;;;;;14.28;25.89;101537.66;5058436;28;20052;-72
2022/01/23 11:00:37;;;;;;;3.70;2.58;;;;;;;14.61;26.58;101532.63;5058799;28;20095;-72
2022/01/23 11:03:24;;;;;;;21.33;11.57;;;;;;;15.31;26.35;101531.25;5058913;28;20099;-72
2022/01/23 11:05:51;;;;;;;8.90;5.30;;;;;;;15.52;26.57;101528.16;5059370;28;20056;-72
2022/01/23 11:08:30;;;;;;;8.20;5.63;;;;;;;15.52;25.78;101520.56;5058985;28;20025;-72
2022/01/23 11:11:06;;;;;;;3.80;2.72;;;;;;;13.63;27.25;101524.50;5058540;28;20029;-72
2022/01/23 11:19:40;;;;;;;27.88;14.27;;;;;;;12.59;30.10;101534.13;5060513;28;20048;-71
2022/01/23 11:22:06;;;;;;;13.77;9.45;;;;;;;12.96;29.21;101522.22;5059230;28;20024;-71
2022/01/23 11:24:36;;;;;;;6.40;4.10;;;;;;;13.51;28.66;101521.69;5058924;28;20060;-71
2022/01/23 11:27:09;;;;;;;4.13;3.22;;;;;;;13.71;28.72;101519.13;5058664;28;20033;-72
2022/01/23 11:29:35;;;;;;;5.05;2.72;;;;;;;14.40;28.01;101520.78;5058673;28;20025;-72
2022/01/23 11:32:04;;;;;;;18.83;12.68;;;;;;;14.57;28.42;101520.50;5058638;28;20025;-72
2022/01/23 11:34:34;;;;;;;7.13;5.38;;;;;;;14.53;27.60;101513.97;5058618;28;20039;-72
2022/01/23 11:37:00;;;;;;;12.30;9.10;;;;;;;14.35;27.83;101509.84;5059098;28;20560;-72
2022/01/23 11:56:43;;;;;;;8.80;5.00;;;;;;;14.19;29.16;101481.00;5002254;28;20030;-78
2022/01/23 11:59:09;;;;;;;6.63;4.63;;;;;;;14.18;28.02;101476.56;4999661;28;20054;-79
2022/01/23 12:01:36;;;;;;;9.50;5.07;;;;;;;13.62;28.72;101474.50;5026219;28;20069;-80
2022/01/23 12:04:08;;;;;;;6.93;4.95;;;;;;;14.08;29.01;101464.69;5061104;28;20032;-79
2022/01/23 12:06:38;;;;;;;13.90;9.10;;;;;;;14.25;28.75;101468.38;5059550;28;20495;-79
2022/01/23 12:09:09;;;;;;;23.88;15.85;;;;;;;14.43;28.58;101464.06;5060524;28;20033;-79
2022/01/23 12:12:02;;;;;;;34.03;23.50;;;;;;;14.49;28.41;101462.69;5063046;28;20029;-78
2022/01/23 12:17:17;;;;;;;16.15;10.80;;;;;;;14.57;28.38;101441.28;5059128;28;20033;-79
2022/01/23 12:20:01;;;;;;;10.82;8.48;;;;;;;14.29;28.46;101438.50;5058949;28;20037;-79
2022/01/23 12:22:40;;;;;;;16.70;10.27;;;;;;;14.56;28.25;101434.06;5057640;28;20491;-79
2022/01/23 12:25:08;;;;;;;14.13;10.07;;;;;;;14.24;28.67;101417.16;5056980;28;20368;-78
2022/01/23 12:27:33;;;;;;;12.52;8.88;;;;;;;14.42;28.00;101434.44;5056639;28;20033;-78
2022/01/23 12:30:35;;;;;;;10.80;8.82;;;;;;;14.29;29.17;101435.69;5056453;28;20086;-79
2022/01/23 12:33:13;;;;;;;23.75;15.38;;;;;;;14.12;29.00;101436.81;5056808;28;20087;-79
2022/01/23 12:35:42;;;;;;;16.70;10.10;;;;;;;14.09;29.28;101432.75;5056449;28;20032;-79
2022/01/23 12:38:13;;;;;;;11.63;9.00;;;;;;;13.96;29.79;101427.56;5058675;28;20483;-79
2022/01/23 12:40:46;;;;;;;10.55;8.05;;;;;;;13.98;29.66;101431.63;5059330;28;20529;-78
2022/01/23 12:43:35;;;;;;;10.52;8.60;;;;;;;14.01;29.23;101416.94;5059220;28;20041;-78
2022/01/23 12:46:08;;;;;;;6.72;5.28;;;;;;;13.93;29.47;101406.69;5058264;28;20029;-79
2022/01/23 12:48:33;;;;;;;14.57;8.10;;;;;;;13.93;29.55;101406.69;5058687;28;20032;-78
2022/01/23 12:51:28;;;;;;;8.45;6.50;;;;;;;13.90;29.83;101404.59;5058677;28;20025;-79
2022/01/23 12:53:59;;;;;;;10.40;6.35;;;;;;;13.95;29.39;101415.53;5058013;28;20036;-79
2022/01/23 12:56:45;;;;;;;10.18;6.05;;;;;;;13.73;29.83;101404.91;5058271;28;20032;-79
2022/01/23 12:59:22;;;;;;;4.65;4.15;;;;;;;13.46;29.90;101407.31;5058284;28;20053;-79
2022/01/23 13:01:50;;;;;;;11.05;9.25;;;;;;;13.49;30.17;101400.22;5058940;28;20492;-79
2022/01/23 13:04:22;;;;;;;13.93;9.43;;;;;;;13.37;30.64;101401.06;5058684;28;20031;-79
2022/01/23 13:06:58;;;;;;;10.32;7.63;;;;;;;13.57;30.25;101394.47;5058942;28;20044;-78
2022/01/23 13:13:07;;;;;;;7.63;4.80;;;;;;;13.80;28.83;101397.56;5061774;28;20043;-78
2022/01/23 13:32:47;;;;;;;14.77;9.70;;;;;;;13.76;30.09;101395.81;5022327;28;20103;-79
2022/01/23 13:35:16;;;;;;;10.63;6.78;;;;;;;13.80;30.06;101403.13;5058408;28;20040;-80
2022/01/23 13:37:57;;;;;;;11.05;8.57;;;;;;;13.66;30.42;101402.72;5059835;28;20032;-78
2022/01/23 13:40:34;;;;;;;12.05;7.50;;;;;;;13.72;30.40;101406.06;5059573;28;20025;-79
2022/01/23 13:48:01;;;;;;;16.85;10.25;;;;;;;13.77;30.73;101400.22;5057728;28;20017;-78
2022/01/23 14:00:00;;;;;;;13.05;8.65;;;;;;;13.00;32.25;101386.28;5057657;28;20446;-79
2022/01/23 14:02:47;;;;;;;12.10;7.22;;;;;;;12.96;32.03;101386.16;5056231;28;20082;-78
2022/01/23 14:05:22;;;;;;;14.27;8.73;;;;;;;12.82;32.84;101352.97;5056664;28;20381;-78
2022/01/23 14:07:54;;;;;;;13.95;10.35;;;;;;;12.93;33.22;101380.44;5056135;28;20059;-79
2022/01/23 14:10:39;;;;;;;26.15;14.05;;;;;;;12.90;33.35;101370.78;5055276;28;20036;-78
2022/01/23 14:13:10;;;;;;;19.48;11.80;;;;;;;12.74;33.18;101356.72;5057402;28;20036;-79
2022/01/23 14:15:43;;;;;;;15.38;10.30;;;;;;;12.74;33.94;101355.91;5057151;28;20100;-79
2022/01/23 14:18:12;;;;;;;19.45;12.85;;;;;;;12.79;33.98;101355.69;5057042;28;20500;-80
2022/01/23 14:20:54;;;;;;;19.40;13.45;;;;;;;12.55;34.01;101357.28;5057271;28;20037;-79
2022/01/23 14:23:20;;;;;;;11.45;8.55;;;;;;;12.44;34.77;101358.09;5057371;28;20075;-80
2022/01/23 14:25:52;;;;;;;15.82;11.38;;;;;;;12.35;34.48;101355.38;5057303;28;20025;-79
2022/01/23 14:28:22;;;;;;;13.25;10.50;;;;;;;12.31;35.29;101348.91;5055580;28;20116;-79
2022/01/23 14:30:59;;;;;;;17.08;11.30;;;;;;;12.40;35.15;101349.59;5057614;28;20029;-79
2022/01/23 14:33:34;;;;;;;16.67;12.93;;;;;;;12.49;34.92;101355.88;5055726;28;20025;-79
2022/01/23 14:36:16;;;;;;;22.27;13.18;;;;;;;12.35;35.18;101355.38;5055723;28;20028;-79
2022/01/23 14:39:03;;;;;;;16.85;12.70;;;;;;;12.28;35.47;101346.78;5055562;28;20029;-79
2022/01/23 14:41:33;;;;;;;15.82;11.13;;;;;;;12.17;35.94;101348.41;5057064;28;20097;-78
2022/01/23 14:44:14;;;;;;;19.67;12.65;;;;;;;12.25;36.30;101355.84;5058047;28;20039;-79
2022/01/23 14:46:45;;;;;;;31.60;20.33;;;;;;;12.10;36.67;101342.56;5056833;28;20047;-78
2022/01/23 14:49:21;;;;;;;19.27;13.07;;;;;;;12.16;35.61;101346.78;5056313;28;20547;-79
2022/01/23 14:51:55;;;;;;;15.80;11.57;;;;;;;11.94;36.03;101346.00;5055275;28;20033;-79
2022/01/23 14:54:22;;;;;;;15.25;11.82;;;;;;;12.02;35.91;101335.91;5056059;28;20057;-79
2022/01/23 14:56:51;;;;;;;13.90;10.38;;;;;;;11.89;37.40;101343.44;5056366;28;20028;-78
2022/01/23 14:59:19;;;;;;;21.92;13.35;;;;;;;11.77;38.41;101348.91;5056400;28;20507;-79
2022/01/23 15:01:46;;;;;;;21.77;15.18;;;;;;;11.69;39.43;101352.63;5059759;28;20036;-80
2022/01/23 15:04:15;;;;;;;15.70;11.68;;;;;;;11.27;39.77;101308.88;5058894;28;20048;-79
2022/01/23 15:06:48;;;;;;;14.82;9.02;;;;;;;11.30;41.03;101340.00;5059947;28;20408;-78
2022/01/23 15:09:16;;;;;;;16.13;10.43;;;;;;;11.14;41.92;101334.22;5060569;28;20039;-78
2022/01/23 15:11:41;;;;;;;13.77;9.23;;;;;;;10.94;41.95;101333.03;5059132;28;20039;-78